createdAt,value
2023-05-18T00:00:45.452Z,32.70
2023-05-18T00:03:13.146Z,32.50
2023-05-18T00:05:43.343Z,30.40
2023-05-18T00:08:11.421Z,35.50
2023-05-18T00:10:39.377Z,32.90
2023-05-18T00:13:09.090Z,33.00
2023-05-18T00:15:36.861Z,27.40
2023-05-18T00:18:04.786Z,22.80
2023-05-18T00:20:32.897Z,22.60
2023-05-18T00:23:01.069Z,22.40
2023-05-18T00:25:28.891Z,21.50
2023-05-18T00:27:56.793Z,27.70
2023-05-18T00:30:25.995Z,21.80
2023-05-18T00:32:53.406Z,21.10
2023-05-18T00:35:21.016Z,20.90
2023-05-18T00:37:49.234Z,19.10
2023-05-18T00:40:17.052Z,24.70
2023-05-18T00:42:44.634Z,20.10
2023-05-18T00:45:12.325Z,24.20
2023-05-18T00:47:40.264Z,20.80
2023-05-18T00:50:08.651Z,22.50
2023-05-18T00:52:36.594Z,25.10
2023-05-18T00:55:05.273Z,127.20
2023-05-18T00:57:34.067Z,50.00
2023-05-18T01:00:01.726Z,49.60
2023-05-18T01:02:30.827Z,55.40
2023-05-18T01:05:00.497Z,43.70
2023-05-18T01:07:28.707Z,46.50
2023-05-18T01:09:56.468Z,47.90
2023-05-18T01:12:35.905Z,51.70
2023-05-18T01:15:04.485Z,55.60
2023-05-18T01:17:50.911Z,67.30
2023-05-18T01:20:41.186Z,72.00
2023-05-18T01:23:14.369Z,74.60
2023-05-18T01:25:54.219Z,67.60
2023-05-18T01:28:27.767Z,76.60
2023-05-18T01:30:55.444Z,66.60
2023-05-18T01:33:24.744Z,62.40
2023-05-18T01:35:52.951Z,61.40
2023-05-18T01:38:26.769Z,54.70
2023-05-18T01:41:21.758Z,63.30
2023-05-18T01:44:00.398Z,50.30
2023-05-18T01:46:39.203Z,60.60
2023-05-18T01:49:14.581Z,62.10
2023-05-18T01:51:44.743Z,73.80
2023-05-18T01:54:12.425Z,85.70
2023-05-18T01:56:40.292Z,84.00
2023-05-18T01:59:08.281Z,82.90
2023-05-18T02:01:36.700Z,78.60
2023-05-18T02:04:09.806Z,88.00
2023-05-18T02:06:37.903Z,99.00
2023-05-18T02:09:06.089Z,84.10
2023-05-18T02:11:33.735Z,78.10
2023-05-18T02:14:01.868Z,66.10
2023-05-18T02:16:29.536Z,66.80
2023-05-18T02:18:58.404Z,73.40
2023-05-18T02:21:26.332Z,63.50
2023-05-18T02:23:53.882Z,59.20
2023-05-18T02:26:21.440Z,64.40
2023-05-18T02:31:21.093Z,69.50
2023-05-18T02:33:48.627Z,52.80
2023-05-18T02:36:18.920Z,61.20
2023-05-18T02:38:46.709Z,57.40
2023-05-18T02:41:14.369Z,47.40
2023-05-18T02:43:42.135Z,38.00
2023-05-18T02:46:09.946Z,41.10
2023-05-18T02:48:38.793Z,48.40
2023-05-18T02:51:06.250Z,42.50
2023-05-18T02:53:34.125Z,54.60
2023-05-18T02:56:07.281Z,54.10
2023-05-18T02:58:44.288Z,46.80
2023-05-18T03:01:19.161Z,62.40
2023-05-18T03:03:49.777Z,46.80
2023-05-18T03:06:17.517Z,52.40
2023-05-18T03:08:45.378Z,45.00
2023-05-18T03:11:13.349Z,36.30
2023-05-18T03:13:41.288Z,39.20
2023-05-18T03:16:09.594Z,33.50
2023-05-18T03:18:37.182Z,34.10
2023-05-18T03:21:05.964Z,37.30
2023-05-18T03:23:33.652Z,41.20
2023-05-18T03:26:02.931Z,43.00
2023-05-18T03:28:31.598Z,40.50
2023-05-18T03:30:59.986Z,39.50
2023-05-18T03:33:28.653Z,36.10
2023-05-18T03:35:56.520Z,40.10
2023-05-18T03:38:25.102Z,43.90
2023-05-18T03:40:58.190Z,36.50
2023-05-18T03:43:27.420Z,39.20
2023-05-18T03:45:55.211Z,37.70
2023-05-18T03:48:23.020Z,28.20
2023-05-18T03:50:51.122Z,31.00
2023-05-18T03:53:19.492Z,56.30
2023-05-18T03:55:49.541Z,35.20
2023-05-18T03:58:17.148Z,37.40
2023-05-18T04:00:46.038Z,28.20
2023-05-18T04:03:14.998Z,33.30
2023-05-18T04:05:46.493Z,27.00
2023-05-18T04:08:14.920Z,44.20
2023-05-18T04:10:43.604Z,29.70
2023-05-18T04:13:11.934Z,28.50
2023-05-18T04:15:39.375Z,24.30
2023-05-18T04:18:08.593Z,24.60
2023-05-18T04:20:38.220Z,24.50
2023-05-18T04:23:05.947Z,22.70
2023-05-18T04:25:34.052Z,21.10
2023-05-18T04:28:01.793Z,28.70
2023-05-18T04:30:30.370Z,21.40
2023-05-18T04:33:01.017Z,24.00
2023-05-18T04:35:28.951Z,19.20
2023-05-18T04:37:56.726Z,17.60
2023-05-18T04:40:25.625Z,23.20
2023-05-18T04:42:53.502Z,24.30
2023-05-18T04:45:26.864Z,31.20
2023-05-18T04:47:56.990Z,28.30
2023-05-18T04:50:25.530Z,36.90
2023-05-18T04:52:54.151Z,24.50
2023-05-18T04:55:29.655Z,20.00
2023-05-18T04:58:05.387Z,31.90
2023-05-18T05:00:32.972Z,37.50
2023-05-18T05:03:00.474Z,22.90
2023-05-18T05:05:28.056Z,22.50
2023-05-18T05:07:56.516Z,27.70
2023-05-18T05:10:24.707Z,20.80
2023-05-18T05:12:52.293Z,21.30
2023-05-18T05:15:20.220Z,30.00
2023-05-18T05:17:49.999Z,25.50
2023-05-18T05:20:18.221Z,20.70
2023-05-18T05:22:45.955Z,22.00
2023-05-18T05:25:16.326Z,22.10
2023-05-18T05:27:43.658Z,15.80
2023-05-18T05:30:12.028Z,18.40
2023-05-18T05:32:40.540Z,19.70
2023-05-18T05:35:10.213Z,26.90
2023-05-18T05:37:37.993Z,19.60
2023-05-18T05:40:07.947Z,21.70
2023-05-18T05:42:39.752Z,15.90
2023-05-18T05:45:09.048Z,25.00
2023-05-18T05:47:44.937Z,25.50
2023-05-18T05:50:13.486Z,23.70
2023-05-18T05:52:41.181Z,16.80
2023-05-18T05:55:10.260Z,25.10
2023-05-18T05:57:42.782Z,17.00
2023-05-18T06:00:12.033Z,21.00
2023-05-18T06:02:53.064Z,28.50
2023-05-18T06:05:36.527Z,26.70
2023-05-18T06:08:07.261Z,17.60
2023-05-18T06:10:34.926Z,27.30
2023-05-18T06:13:02.584Z,22.20
2023-05-18T06:15:37.453Z,23.40
2023-05-18T06:18:05.146Z,21.40
2023-05-18T06:20:33.456Z,28.70
2023-05-18T06:23:01.526Z,23.30
2023-05-18T06:25:44.032Z,27.90
2023-05-18T06:28:24.390Z,22.90
2023-05-18T06:31:03.220Z,26.90
2023-05-18T06:33:39.807Z,26.00
2023-05-18T06:36:07.172Z,20.30
2023-05-18T06:38:34.292Z,30.80
2023-05-18T06:41:01.858Z,29.60
2023-05-18T06:43:29.001Z,22.40
2023-05-18T06:46:24.366Z,27.20
2023-05-18T06:48:55.965Z,18.10
2023-05-18T06:51:24.042Z,34.90
2023-05-18T06:53:52.110Z,18.60
2023-05-18T06:56:20.223Z,21.90
2023-05-18T06:58:48.049Z,29.80
2023-05-18T07:01:15.750Z,21.80
2023-05-18T07:03:44.286Z,18.70
2023-05-18T07:06:11.978Z,20.60
2023-05-18T07:08:39.629Z,25.00
2023-05-18T07:11:07.407Z,21.30
2023-05-18T07:13:36.268Z,27.80
2023-05-18T07:16:03.880Z,22.00
2023-05-18T07:18:31.490Z,34.20
2023-05-18T07:20:59.146Z,57.60
2023-05-18T07:23:26.703Z,57.50
2023-05-18T07:25:54.569Z,51.50
2023-05-18T07:28:22.646Z,37.20
2023-05-18T07:30:50.405Z,55.40
2023-05-18T07:33:18.133Z,65.50
2023-05-18T07:35:46.139Z,38.10
2023-05-18T07:38:14.004Z,30.50
2023-05-18T07:40:41.514Z,29.50
2023-05-18T07:43:09.431Z,26.60
2023-05-18T07:45:37.331Z,25.20
2023-05-18T07:48:05.081Z,27.30
2023-05-18T07:50:32.696Z,32.20
2023-05-18T07:53:00.225Z,27.10
2023-05-18T07:55:27.641Z,21.50
2023-05-18T07:57:55.428Z,25.60
2023-05-18T08:00:23.744Z,19.70
2023-05-18T08:02:51.861Z,25.00
2023-05-18T08:05:21.674Z,22.50
2023-05-18T08:07:49.758Z,21.90
2023-05-18T08:10:17.611Z,20.40
2023-05-18T08:12:45.612Z,24.60
2023-05-18T08:15:12.817Z,28.90
2023-05-18T08:17:40.463Z,37.70
2023-05-18T08:20:09.269Z,29.40
2023-05-18T08:22:36.827Z,26.40
2023-05-18T08:25:04.489Z,21.90
2023-05-18T08:27:32.149Z,32.80
2023-05-18T08:29:59.709Z,25.80
2023-05-18T08:32:27.163Z,22.70
2023-05-18T08:34:54.720Z,23.40
2023-05-18T08:37:22.593Z,17.00
2023-05-18T08:39:49.944Z,20.00
2023-05-18T08:42:24.514Z,21.00
2023-05-18T08:45:15.586Z,22.90
2023-05-18T08:47:44.288Z,26.00
2023-05-18T08:50:14.016Z,20.70
2023-05-18T08:52:48.189Z,15.00
2023-05-18T08:55:18.026Z,20.20
2023-05-18T08:57:47.504Z,15.90
2023-05-18T09:00:15.686Z,20.10
2023-05-18T09:02:43.492Z,19.90
2023-05-18T09:05:12.673Z,18.50
2023-05-18T09:07:40.398Z,21.20
2023-05-18T09:10:07.927Z,19.70
2023-05-18T09:12:35.781Z,21.00
2023-05-18T09:15:04.093Z,35.50
2023-05-18T09:17:31.674Z,20.40
2023-05-18T09:19:59.128Z,19.50
2023-05-18T09:22:26.987Z,16.60
2023-05-18T09:24:55.669Z,26.70
2023-05-18T09:27:23.227Z,39.60
2023-05-18T09:29:54.984Z,28.70
2023-05-18T09:32:23.214Z,16.20
2023-05-18T09:34:51.192Z,19.00
2023-05-18T09:37:19.646Z,21.70
2023-05-18T09:40:05.538Z,30.30
2023-05-18T09:42:40.018Z,18.00
2023-05-18T09:45:18.122Z,15.50
2023-05-18T09:47:46.613Z,20.90
2023-05-18T09:50:14.882Z,21.80
2023-05-18T09:52:46.462Z,15.60
2023-05-18T09:55:16.974Z,17.20
2023-05-18T09:57:49.374Z,26.10
2023-05-18T10:00:19.501Z,19.50
2023-05-18T10:02:49.515Z,16.70
2023-05-18T10:05:20.764Z,26.50
2023-05-18T10:07:49.009Z,21.50
2023-05-18T10:10:20.754Z,17.80
2023-05-18T10:12:50.621Z,20.00
2023-05-18T10:15:20.006Z,37.30
2023-05-18T10:17:48.236Z,18.60
2023-05-18T10:20:19.731Z,105.40
2023-05-18T10:22:48.256Z,18.40
2023-05-18T10:25:26.490Z,26.10
2023-05-18T10:27:58.503Z,23.10
2023-05-18T10:30:27.035Z,22.80
2023-05-18T10:32:55.900Z,25.50
2023-05-18T10:35:24.245Z,18.60
2023-05-18T10:37:51.869Z,17.10
2023-05-18T10:40:19.298Z,24.50
2023-05-18T10:42:46.991Z,18.20
2023-05-18T10:45:15.349Z,22.00
2023-05-18T10:47:44.251Z,18.40
2023-05-18T10:50:12.221Z,15.10
2023-05-18T10:52:39.776Z,16.20
2023-05-18T10:55:08.627Z,11.70
2023-05-18T10:57:41.345Z,21.60
2023-05-18T11:00:09.751Z,23.10
2023-05-18T11:02:40.347Z,17.30
2023-05-18T11:05:08.974Z,25.00
2023-05-18T11:07:37.319Z,19.90
2023-05-18T11:10:11.562Z,17.40
2023-05-18T11:12:39.086Z,22.10
2023-05-18T11:15:08.373Z,25.70
2023-05-18T11:17:35.858Z,20.50
2023-05-18T11:20:09.580Z,17.10
2023-05-18T11:22:43.161Z,15.20
2023-05-18T11:25:10.808Z,19.40
2023-05-18T11:27:38.779Z,20.40
2023-05-18T11:30:30.221Z,18.50
2023-05-18T11:33:26.314Z,20.80
2023-05-18T11:35:57.779Z,22.00
2023-05-18T11:39:07.915Z,15.10
2023-05-18T11:41:47.274Z,17.90
2023-05-18T11:44:16.637Z,17.60
2023-05-18T11:46:55.036Z,22.70
2023-05-18T11:49:25.228Z,36.30
2023-05-18T11:52:17.541Z,23.40
2023-05-18T11:54:47.081Z,23.50
2023-05-18T11:57:15.832Z,13.80
2023-05-18T11:59:47.237Z,14.40
2023-05-18T12:02:35.237Z,13.70
2023-05-18T12:05:06.671Z,17.10
2023-05-18T12:07:35.597Z,13.50
2023-05-18T12:10:05.384Z,12.10
2023-05-18T12:12:34.364Z,14.20
2023-05-18T12:15:06.432Z,12.10
2023-05-18T12:17:41.102Z,12.00
2023-05-18T12:20:10.261Z,14.90
2023-05-18T12:22:39.653Z,11.30
2023-05-18T12:25:08.040Z,12.20
2023-05-18T12:27:40.699Z,19.60
2023-05-18T12:30:12.752Z,18.10
2023-05-18T12:32:44.357Z,15.30
2023-05-18T12:35:11.786Z,16.80
2023-05-18T12:37:46.431Z,17.10
2023-05-18T12:40:15.195Z,16.60
2023-05-18T12:43:04.470Z,18.40
2023-05-18T12:45:33.339Z,12.60
2023-05-18T12:48:10.930Z,15.70
2023-05-18T12:50:48.299Z,14.50
2023-05-18T12:53:16.307Z,19.00
2023-05-18T12:55:44.724Z,19.00
2023-05-18T12:58:19.107Z,16.30
2023-05-18T13:00:48.540Z,12.80
2023-05-18T13:03:22.755Z,13.90
2023-05-18T13:06:06.764Z,14.30
2023-05-18T13:08:35.264Z,17.20
2023-05-18T13:11:12.576Z,16.10
2023-05-18T13:14:20.966Z,23.50
2023-05-18T13:16:51.419Z,24.70
2023-05-18T13:19:20.254Z,23.00
2023-05-18T13:21:56.045Z,17.50
2023-05-18T13:24:23.597Z,13.70
2023-05-18T13:26:51.558Z,13.00
2023-05-18T13:29:19.736Z,11.50
2023-05-18T13:31:47.419Z,15.00
2023-05-18T13:34:15.457Z,13.90
2023-05-18T13:36:43.326Z,23.30
2023-05-18T13:39:11.405Z,30.90
2023-05-18T13:41:39.368Z,21.50
2023-05-18T13:44:06.852Z,48.10
2023-05-18T13:46:38.299Z,25.80
2023-05-18T13:49:05.882Z,97.50
2023-05-18T13:51:33.340Z,55.90
2023-05-18T13:54:02.020Z,54.80
2023-05-18T13:56:29.745Z,86.60
2023-05-18T13:58:57.197Z,41.40
2023-05-18T14:01:25.438Z,85.60
2023-05-18T14:03:53.270Z,38.90
2023-05-18T14:06:21.826Z,24.40
2023-05-18T14:08:49.993Z,29.60
2023-05-18T14:11:17.653Z,24.20
2023-05-18T14:13:45.520Z,18.80
2023-05-18T14:16:13.868Z,20.90
2023-05-18T14:18:41.719Z,13.00
2023-05-18T14:21:10.240Z,23.40
2023-05-18T14:23:38.029Z,17.70
2023-05-18T14:26:05.802Z,20.00
2023-05-18T14:28:33.635Z,41.80
2023-05-18T14:31:01.339Z,28.50
2023-05-18T14:33:29.289Z,27.20
2023-05-18T14:35:58.154Z,26.00
2023-05-18T14:38:27.349Z,29.00
2023-05-18T14:40:54.922Z,53.50
2023-05-18T14:43:22.520Z,30.80
2023-05-18T14:46:00.174Z,39.10
2023-05-18T14:48:35.613Z,27.20
2023-05-18T14:51:03.283Z,27.50
2023-05-18T14:53:30.970Z,31.70
2023-05-18T14:55:58.393Z,41.20
2023-05-18T14:58:26.905Z,56.80
2023-05-18T15:00:54.457Z,53.80
2023-05-18T15:03:22.418Z,53.10
2023-05-18T15:05:50.776Z,36.20
2023-05-18T15:08:18.536Z,29.70
2023-05-18T15:10:46.714Z,19.70
2023-05-18T15:13:16.161Z,18.80
2023-05-18T15:15:44.324Z,11.90
2023-05-18T15:18:12.288Z,14.20
2023-05-18T15:20:42.589Z,13.30
2023-05-18T15:23:10.480Z,29.10
2023-05-18T15:25:38.620Z,25.00
2023-05-18T15:28:06.592Z,34.20
2023-05-18T15:30:34.268Z,27.50
2023-05-18T15:33:02.685Z,26.00
2023-05-18T15:35:30.400Z,37.20
2023-05-18T15:37:58.056Z,24.50
2023-05-18T15:40:25.821Z,34.80
2023-05-18T15:42:53.486Z,71.80
2023-05-18T15:45:21.251Z,62.20
2023-05-18T15:47:48.757Z,50.40
2023-05-18T15:50:16.362Z,57.40
2023-05-18T15:52:44.727Z,66.60
2023-05-18T15:55:12.615Z,73.40
2023-05-18T15:57:40.173Z,62.80
2023-05-18T16:00:09.972Z,53.90
2023-05-18T16:02:40.169Z,39.60
2023-05-18T16:05:08.701Z,32.80
2023-05-18T16:07:37.886Z,32.80
2023-05-18T16:10:07.376Z,16.40
2023-05-18T16:12:36.383Z,16.00
2023-05-18T16:15:04.249Z,16.30
2023-05-18T16:17:31.837Z,16.00
2023-05-18T16:20:01.217Z,15.80
2023-05-18T16:22:30.412Z,13.50
2023-05-18T16:24:59.136Z,13.50
2023-05-18T16:27:26.969Z,11.10
2023-05-18T16:29:54.958Z,14.80
2023-05-18T16:32:22.486Z,15.70
2023-05-18T16:34:50.047Z,17.10
2023-05-18T16:37:17.730Z,17.70
2023-05-18T16:39:45.675Z,16.90
2023-05-18T16:42:13.487Z,26.40
2023-05-18T16:44:41.100Z,14.10
2023-05-18T16:47:08.764Z,27.60
2023-05-18T16:49:36.267Z,21.10
2023-05-18T16:52:04.088Z,17.80
2023-05-18T16:54:31.854Z,18.90
2023-05-18T16:56:59.391Z,17.50
2023-05-18T16:59:27.067Z,51.80
2023-05-18T17:01:54.751Z,16.10
2023-05-18T17:04:22.748Z,20.50
2023-05-18T17:06:50.371Z,20.20
2023-05-18T17:09:20.801Z,23.20
2023-05-18T17:11:48.750Z,20.80
2023-05-18T17:14:16.205Z,13.20
2023-05-18T17:16:43.688Z,15.80
2023-05-18T17:19:11.449Z,18.80
2023-05-18T17:21:39.019Z,18.40
2023-05-18T17:24:07.040Z,14.20
2023-05-18T17:26:34.461Z,22.70
2023-05-18T17:29:02.073Z,20.60
2023-05-18T17:31:30.754Z,24.10
2023-05-18T17:33:58.430Z,18.20
2023-05-18T17:36:26.314Z,25.00
2023-05-18T17:38:53.692Z,22.70
2023-05-18T17:41:22.570Z,27.60
2023-05-18T17:43:50.094Z,16.00
2023-05-18T17:46:17.858Z,20.90
2023-05-18T17:48:45.618Z,23.20
2023-05-18T17:51:13.732Z,21.10
2023-05-18T17:53:43.092Z,18.70
2023-05-18T17:56:11.375Z,35.20
2023-05-18T17:58:39.748Z,30.20
2023-05-18T18:01:07.939Z,31.20
2023-05-18T18:03:35.806Z,33.50
2023-05-18T18:06:03.462Z,32.30
2023-05-18T18:08:31.256Z,26.80
2023-05-18T18:10:59.178Z,33.50
2023-05-18T18:13:26.987Z,35.30
2023-05-18T18:15:54.838Z,38.90
2023-05-18T18:18:23.734Z,37.50
2023-05-18T18:20:52.183Z,30.00
2023-05-18T18:23:19.842Z,29.80
2023-05-18T18:25:47.606Z,28.50
2023-05-18T18:28:15.585Z,30.40
2023-05-18T18:30:44.771Z,25.90
2023-05-18T18:33:12.673Z,25.30
2023-05-18T18:35:41.322Z,27.60
2023-05-18T18:38:09.509Z,25.80
2023-05-18T18:40:37.105Z,26.70
2023-05-18T18:43:04.722Z,25.00
2023-05-18T18:45:32.515Z,26.30
2023-05-18T18:48:00.208Z,27.90
2023-05-18T18:50:27.698Z,25.10
2023-05-18T18:52:55.267Z,27.40
2023-05-18T18:55:26.148Z,17.00
2023-05-18T18:57:53.666Z,22.60
2023-05-18T19:00:21.754Z,27.70
2023-05-18T19:02:49.202Z,22.10
2023-05-18T19:05:21.906Z,21.80
2023-05-18T19:07:55.364Z,20.80
2023-05-18T19:10:24.357Z,27.00
2023-05-18T19:12:52.433Z,20.20
2023-05-18T19:15:22.694Z,24.70
2023-05-18T19:17:53.975Z,22.00
2023-05-18T19:20:21.933Z,22.90
2023-05-18T19:22:49.431Z,21.70
2023-05-18T19:25:17.292Z,25.70
2023-05-18T19:27:44.876Z,21.50
2023-05-18T19:30:16.817Z,22.10
2023-05-18T19:32:46.558Z,23.30
2023-05-18T19:35:14.599Z,54.70
2023-05-18T19:37:42.359Z,77.70
2023-05-18T19:40:09.724Z,39.00
2023-05-18T19:42:37.232Z,23.10
2023-05-18T19:45:05.550Z,23.50
2023-05-18T19:47:32.991Z,22.20
2023-05-18T19:50:00.978Z,23.00
2023-05-18T19:52:28.731Z,19.40
2023-05-18T19:54:56.712Z,21.30
2023-05-18T19:57:26.616Z,20.90
2023-05-18T19:59:54.385Z,21.90
2023-05-18T20:02:22.148Z,21.70
2023-05-18T20:04:50.824Z,22.00
2023-05-18T20:07:18.390Z,23.10
2023-05-18T20:09:46.459Z,19.00
2023-05-18T20:12:14.336Z,18.60
2023-05-18T20:14:43.685Z,16.60
2023-05-18T20:17:11.387Z,26.30
2023-05-18T20:19:39.384Z,17.10
2023-05-18T20:22:09.573Z,18.90
2023-05-18T20:24:37.348Z,16.50
2023-05-18T20:27:05.316Z,19.40
2023-05-18T20:29:33.381Z,16.40
2023-05-18T20:32:01.191Z,19.20
2023-05-18T20:34:28.606Z,23.40
2023-05-18T20:36:56.908Z,32.70
2023-05-18T20:39:26.483Z,34.50
2023-05-18T20:41:54.247Z,40.10
2023-05-18T20:44:23.854Z,118.60
2023-05-18T20:46:53.078Z,65.70
2023-05-18T20:49:27.196Z,53.00
2023-05-18T20:51:54.758Z,77.20
2023-05-18T20:54:22.287Z,77.10
2023-05-18T20:56:51.612Z,78.50
2023-05-18T20:59:19.553Z,73.40
2023-05-18T21:01:48.264Z,82.90
2023-05-18T21:04:17.266Z,121.50
2023-05-18T21:06:47.249Z,139.00
2023-05-18T21:09:17.916Z,181.00
2023-05-18T21:11:45.037Z,205.90
2023-05-18T21:14:32.658Z,215.20
2023-05-18T21:17:00.324Z,254.50
2023-05-18T21:19:28.009Z,338.50
2023-05-18T21:21:56.258Z,437.30
2023-05-18T21:24:23.921Z,482.50
2023-05-18T21:26:51.485Z,490.70
2023-05-18T21:29:19.045Z,455.40
2023-05-18T21:31:46.866Z,417.60
2023-05-18T21:34:15.596Z,390.90
2023-05-18T21:36:43.052Z,396.40
2023-05-18T21:39:11.430Z,419.30
2023-05-18T21:41:42.802Z,394.30
2023-05-18T21:44:10.568Z,378.50
2023-05-18T21:46:38.310Z,414.40
2023-05-18T21:49:06.933Z,324.50
2023-05-18T21:51:34.354Z,284.80
2023-05-18T21:54:02.368Z,198.70
2023-05-18T21:56:30.129Z,62.40
2023-05-18T21:58:57.330Z,34.20
2023-05-18T22:01:24.718Z,26.60
2023-05-18T22:03:52.409Z,19.30
2023-05-18T22:06:19.813Z,15.60
2023-05-18T22:08:47.775Z,22.20
2023-05-18T22:11:15.535Z,20.20
2023-05-18T22:13:43.196Z,31.80
2023-05-18T22:16:10.908Z,26.70
2023-05-18T22:18:38.675Z,29.50
2023-05-18T22:21:06.906Z,22.70
2023-05-18T22:23:33.971Z,69.30
2023-05-18T22:26:01.103Z,54.90
2023-05-18T22:28:28.247Z,32.20
2023-05-18T22:30:55.397Z,21.80
2023-05-18T22:33:22.821Z,19.90
2023-05-18T22:35:50.127Z,17.60
2023-05-18T22:38:18.005Z,17.40
2023-05-18T22:40:45.800Z,22.40
2023-05-18T22:43:13.492Z,20.40
2023-05-18T22:45:41.259Z,17.50
2023-05-18T22:48:08.504Z,16.10
2023-05-18T22:50:36.171Z,23.80
2023-05-18T22:53:04.519Z,17.10
2023-05-18T22:55:32.971Z,19.40
2023-05-18T22:58:00.612Z,18.50
2023-05-18T23:00:28.070Z,22.90
2023-05-18T23:02:55.631Z,19.90
2023-05-18T23:05:23.402Z,18.90
2023-05-18T23:07:52.469Z,14.90
2023-05-18T23:10:20.019Z,20.60
2023-05-18T23:12:48.703Z,20.70
2023-05-18T23:15:15.967Z,21.90
2023-05-18T23:17:43.565Z,19.50
2023-05-18T23:20:12.317Z,24.80
2023-05-18T23:22:39.720Z,22.10
2023-05-18T23:25:09.942Z,23.20
2023-05-18T23:27:36.927Z,23.30
2023-05-18T23:30:04.339Z,25.10
2023-05-18T23:32:32.440Z,20.10
2023-05-18T23:35:00.108Z,28.30
2023-05-18T23:37:27.504Z,28.80
2023-05-18T23:39:54.931Z,32.10
2023-05-18T23:42:22.185Z,28.20
2023-05-18T23:44:49.843Z,33.00
2023-05-18T23:47:17.613Z,28.90
2023-05-18T23:49:45.676Z,31.00
2023-05-18T23:52:14.057Z,29.00
2023-05-18T23:54:41.822Z,24.80
2023-05-18T23:57:10.111Z,22.40
2023-05-18T23:59:37.481Z,23.60
